Time;durP1;ratioP1;P1;durP2;ratioP2;P2;SDS_P1;SDS_P2;PMS_P1;PMS_P2;Temp;Humidity;BMP_temperature;BMP_pressure;BME280_temperature;BME280_humidity;BME280_pressure;Samples;Min_cycle;Max_cycle;Signal;HPM_P1;HPM_P2
2022/01/02 15:59:17;;;;;;;1.83;1.73;;;10.30;81.60;;;;;;5132859;27;20286;-74
2022/01/02 16:01:43;;;;;;;3.85;2.50;;;10.30;81.50;;;;;;5133176;27;20181;-75
2022/01/02 16:04:09;;;;;;;3.00;2.80;;;;;;;;;;5130413;27;21917;-75
2022/01/02 16:06:34;;;;;;;4.28;3.10;;;10.30;81.80;;;;;;5121789;27;20184;-72
2022/01/02 16:09:00;;;;;;;3.50;3.22;;;;;;;;;;5132845;27;20181;-72
2022/01/02 16:11:26;;;;;;;4.05;3.63;;;10.30;81.60;;;;;;5125301;27;20212;-73
2022/01/02 16:13:52;;;;;;;4.78;2.97;;;10.30;81.40;;;;;;5131579;27;20200;-73
2022/01/02 16:16:18;;;;;;;3.53;3.13;;;;;;;;;;5123847;27;20287;-73
2022/01/02 16:18:44;;;;;;;2.92;2.72;;;10.30;81.80;;;;;;5127726;27;20213;-72
2022/01/02 16:21:10;;;;;;;6.40;3.58;;;10.20;81.40;;;;;;5117371;27;20195;-77
2022/01/02 16:23:36;;;;;;;5.65;4.07;;;10.20;81.40;;;;;;5128210;27;20177;-79
2022/01/02 16:26:02;;;;;;;4.50;4.03;;;10.20;82.10;;;;;;5120095;27;20654;-77
2022/01/02 16:28:28;;;;;;;12.38;3.33;;;10.20;82.30;;;;;;5127977;27;20177;-77
2022/01/02 16:30:54;;;;;;;4.78;3.85;;;10.10;82.00;;;;;;5121962;27;20177;-77
2022/01/02 16:33:21;;;;;;;4.53;4.13;;;10.10;81.80;;;;;;5126064;27;20564;-77
2022/01/02 16:35:50;;;;;;;5.28;3.58;;;10.10;81.40;;;;;;5122627;27;20285;-77
2022/01/02 16:38:16;;;;;;;8.18;4.65;;;10.10;81.70;;;;;;5125422;27;20220;-78
2022/01/02 16:40:46;;;;;;;5.30;4.18;;;10.10;81.70;;;;;;5118116;27;20584;-76
2022/01/02 16:43:16;;;;;;;6.60;3.42;;;10.10;81.70;;;;;;5118859;27;20735;-76
2022/01/02 16:45:42;;;;;;;3.72;3.53;;;10.00;81.90;;;;;;5123448;27;20196;-77
2022/01/02 16:48:08;;;;;;;5.60;4.05;;;10.00;82.00;;;;;;5122275;27;20195;-76
2022/01/02 16:50:34;;;;;;;4.63;4.22;;;10.00;82.10;;;;;;5130363;27;20176;-77
2022/01/02 16:53:00;;;;;;;3.47;3.05;;;9.90;81.80;;;;;;5106269;27;20272;-75
2022/01/02 16:55:29;;;;;;;6.30;4.68;;;9.90;82.10;;;;;;5127739;27;20267;-75
2022/01/02 16:57:55;;;;;;;9.70;4.38;;;9.90;82.00;;;;;;5105537;27;20267;-75
2022/01/02 17:00:21;;;;;;;9.52;3.88;;;9.80;82.10;;;;;;5125262;27;20980;-75
2022/01/02 17:02:49;;;;;;;3.90;2.75;;;9.80;82.40;;;;;;5122644;27;20181;-75
2022/01/02 17:05:15;;;;;;;4.03;3.55;;;9.80;82.50;;;;;;5114801;27;20176;-76
2022/01/02 17:07:41;;;;;;;3.42;3.20;;;9.80;82.50;;;;;;5134847;27;20693;-75
2022/01/02 17:10:08;;;;;;;4.38;3.30;;;9.80;82.60;;;;;;5116009;27;20186;-76
2022/01/02 17:12:35;;;;;;;5.50;4.22;;;9.80;82.40;;;;;;5105799;27;20220;-75
2022/01/02 17:15:01;;;;;;;4.03;3.72;;;9.80;83.00;;;;;;5112966;27;20178;-77
2022/01/02 17:17:26;;;;;;;8.65;5.15;;;9.70;83.00;;;;;;5113692;27;20219;-75
2022/01/02 17:19:53;;;;;;;6.45;4.22;;;;;;;;;;5118786;27;20200;-75
2022/01/02 17:22:19;;;;;;;13.65;4.57;;;9.60;83.20;;;;;;5091820;27;20185;-76
2022/01/02 17:24:45;;;;;;;5.13;4.63;;;9.50;83.10;;;;;;5112707;27;20185;-74
2022/01/02 17:27:12;;;;;;;7.78;4.57;;;9.50;83.20;;;;;;5106435;27;20224;-76
2022/01/02 17:29:38;;;;;;;7.82;4.65;;;9.40;83.40;;;;;;5097104;27;20234;-75
2022/01/02 17:32:09;;;;;;;8.90;5.28;;;9.40;83.80;;;;;;5093665;27;20181;-76
2022/01/02 17:34:36;;;;;;;6.13;4.72;;;9.30;84.00;;;;;;5110674;27;20185;-74
2022/01/02 17:37:04;;;;;;;6.45;5.57;;;9.30;84.10;;;;;;5092134;27;20677;-75
2022/01/02 17:39:32;;;;;;;4.97;4.57;;;9.30;83.70;;;;;;5115472;27;20202;-75
2022/01/02 17:41:59;;;;;;;8.18;4.25;;;9.20;83.90;;;;;;5092007;28;20565;-76
2022/01/02 17:44:30;;;;;;;3.97;3.67;;;9.20;84.30;;;;;;5111665;27;20213;-75
2022/01/02 17:46:56;;;;;;;6.40;4.43;;;9.10;84.40;;;;;;5106207;27;20196;-75
2022/01/02 17:49:22;;;;;;;9.55;5.55;;;9.10;84.20;;;;;;5116931;27;20989;-76
2022/01/02 17:51:49;;;;;;;5.40;4.93;;;9.10;84.30;;;;;;5110183;27;20186;-73
2022/01/02 17:54:15;;;;;;;8.77;5.85;;;9.10;84.40;;;;;;5112590;27;20193;-74
2022/01/02 17:56:41;;;;;;;12.18;6.07;;;9.00;84.20;;;;;;5117211;27;20206;-74
2022/01/02 17:59:08;;;;;;;7.85;5.07;;;9.00;84.70;;;;;;5108042;27;20213;-74
2022/01/02 18:01:35;;;;;;;7.82;5.28;;;8.90;84.90;;;;;;5108404;27;20181;-75
2022/01/02 18:04:02;;;;;;;6.82;4.60;;;8.80;85.00;;;;;;5115947;27;20188;-77
2022/01/02 18:06:28;;;;;;;7.63;5.30;;;8.70;85.30;;;;;;5108216;27;20612;-76
2022/01/02 18:08:58;;;;;;;5.93;5.32;;;;;;;;;;5111882;27;20286;-74
2022/01/02 18:11:27;;;;;;;11.90;7.38;;;8.60;85.80;;;;;;5112139;27;20185;-74
2022/01/02 18:13:53;;;;;;;9.50;6.35;;;8.60;85.60;;;;;;5116441;27;20180;-75
2022/01/02 18:16:19;;;;;;;14.15;6.97;;;;;;;;;;5120004;27;20177;-75
2022/01/02 18:18:45;;;;;;;8.38;6.00;;;8.50;86.50;;;;;;5091277;27;20218;-76
2022/01/02 18:21:14;;;;;;;8.82;5.57;;;8.40;86.50;;;;;;5106118;27;20205;-75
2022/01/02 18:23:43;;;;;;;6.72;4.53;;;8.40;86.50;;;;;;5113229;27;20191;-76
2022/01/02 18:26:15;;;;;;;7.60;5.65;;;8.40;86.20;;;;;;5091960;27;20836;-74
2022/01/02 18:28:42;;;;;;;7.35;5.05;;;8.40;86.20;;;;;;5110435;27;20177;-74
2022/01/02 18:31:08;;;;;;;9.75;5.72;;;8.40;86.30;;;;;;5110789;27;20208;-74
2022/01/02 18:33:35;;;;;;;7.97;5.70;;;8.30;86.30;;;;;;5111490;27;20180;-75
2022/01/02 18:36:01;;;;;;;7.75;5.88;;;8.30;86.30;;;;;;5118205;27;20184;-74
2022/01/02 18:38:28;;;;;;;7.72;5.68;;;8.30;86.50;;;;;;5109220;27;20323;-73
2022/01/02 18:40:55;;;;;;;8.90;5.43;;;8.30;86.50;;;;;;5089303;27;20188;-74
2022/01/02 18:43:23;;;;;;;8.27;5.40;;;8.20;86.40;;;;;;5115831;27;20230;-74
2022/01/02 18:45:50;;;;;;;9.90;5.80;;;8.20;86.30;;;;;;5092363;27;20190;-74
2022/01/02 18:48:17;;;;;;;9.27;6.20;;;8.20;86.60;;;;;;5114291;27;20865;-74
2022/01/02 18:50:43;;;;;;;12.93;7.00;;;8.20;86.60;;;;;;5099020;27;20810;-74
2022/01/02 18:53:09;;;;;;;11.32;6.70;;;8.20;86.40;;;;;;5116230;27;20221;-75
2022/01/02 18:55:35;;;;;;;8.27;6.35;;;8.20;86.70;;;;;;5111266;27;20173;-74
2022/01/02 18:58:01;;;;;;;8.15;6.47;;;;;;;;;;5111484;27;20220;-75
2022/01/02 19:00:27;;;;;;;7.97;5.68;;;8.10;87.00;;;;;;5115357;27;20241;-76
2022/01/02 19:02:53;;;;;;;11.05;6.82;;;;;;;;;;5116459;27;20317;-73
2022/01/02 19:05:18;;;;;;;8.65;6.15;;;8.10;87.00;;;;;;5114668;27;20241;-74
2022/01/02 19:07:44;;;;;;;10.95;7.15;;;;;;;;;;5113264;27;20834;-74
2022/01/02 19:10:11;;;;;;;7.50;5.63;;;8.10;87.00;;;;;;5108524;27;20182;-73
2022/01/02 19:12:37;;;;;;;8.73;6.25;;;8.00;86.90;;;;;;5108415;27;20212;-73
2022/01/02 19:15:05;;;;;;;8.68;6.10;;;8.00;86.90;;;;;;5112416;27;20573;-74
2022/01/02 19:17:31;;;;;;;8.35;6.55;;;8.00;86.80;;;;;;5114821;27;20224;-75
2022/01/02 19:19:57;;;;;;;9.38;6.45;;;8.00;86.70;;;;;;5112434;27;20177;-76
2022/01/02 19:22:23;;;;;;;7.17;6.20;;;8.00;86.50;;;;;;5115234;27;20283;-74
2022/01/02 19:24:50;;;;;;;8.13;6.38;;;7.90;87.10;;;;;;5089145;28;20673;-73
2022/01/02 19:27:19;;;;;;;10.05;6.70;;;7.90;87.20;;;;;;5112443;27;20189;-73
2022/01/02 19:29:48;;;;;;;8.57;6.20;;;7.90;87.30;;;;;;5095603;27;20186;-72
2022/01/02 19:32:15;;;;;;;12.07;7.32;;;7.90;87.10;;;;;;5114433;27;20180;-75
2022/01/02 19:34:41;;;;;;;12.23;7.25;;;7.90;86.80;;;;;;5107935;27;20181;-71
2022/01/02 19:37:07;;;;;;;12.75;7.15;;;7.80;87.00;;;;;;5109121;27;20268;-75
2022/01/02 19:39:33;;;;;;;7.80;6.85;;;7.80;87.40;;;;;;5091797;27;20185;-75
2022/01/02 19:42:00;;;;;;;17.42;7.15;;;7.80;87.70;;;;;;5103959;27;20655;-74
2022/01/02 19:44:26;;;;;;;10.52;7.57;;;7.80;87.60;;;;;;5107161;27;20204;-74
2022/01/02 19:46:52;;;;;;;13.90;8.53;;;7.80;87.80;;;;;;5108464;27;20317;-74
2022/01/02 19:49:19;;;;;;;14.10;7.80;;;7.80;87.70;;;;;;5111489;27;20190;-75
2022/01/02 19:51:45;;;;;;;12.00;7.32;;;7.80;87.70;;;;;;5089874;28;20217;-76
2022/01/02 19:54:11;;;;;;;11.75;8.40;;;7.70;87.60;;;;;;5108046;27;20212;-76
2022/01/02 19:56:36;;;;;;;10.97;8.20;;;7.70;88.00;;;;;;5109762;28;20796;-75
2022/01/02 19:59:03;;;;;;;15.88;7.32;;;7.70;88.00;;;;;;5113435;28;20300;-74
2022/01/02 20:01:30;;;;;;;14.90;7.80;;;7.60;88.10;;;;;;5107552;28;20183;-74
2022/01/02 20:03:56;;;;;;;14.32;8.15;;;7.60;88.20;;;;;;5112739;28;20252;-75
2022/01/02 20:06:21;;;;;;;14.10;7.80;;;7.50;88.60;;;;;;5107095;28;20260;-75
2022/01/02 20:08:47;;;;;;;11.55;8.00;;;7.50;88.40;;;;;;5116150;28;20263;-75
2022/01/02 20:11:13;;;;;;;10.40;7.30;;;7.50;88.40;;;;;;5106890;28;20241;-76
2022/01/02 20:13:41;;;;;;;11.75;6.72;;;7.50;88.60;;;;;;5095636;28;20264;-76
2022/01/02 20:16:08;;;;;;;10.85;7.07;;;7.50;88.60;;;;;;5091623;28;20191;-74
2022/01/02 20:18:35;;;;;;;21.02;8.52;;;7.50;88.50;;;;;;5107906;28;20601;-77
2022/01/02 20:21:01;;;;;;;15.37;8.67;;;7.50;88.70;;;;;;5090122;28;20176;-76
2022/01/02 20:23:27;;;;;;;11.83;7.97;;;7.40;88.60;;;;;;5107548;28;20165;-75
2022/01/02 20:25:53;;;;;;;18.53;9.50;;;7.40;88.60;;;;;;5110104;28;20188;-75
2022/01/02 20:28:19;;;;;;;17.47;8.73;;;7.40;88.60;;;;;;5111829;28;20573;-76
2022/01/02 20:30:46;;;;;;;10.52;7.20;;;7.40;88.40;;;;;;5108924;28;20181;-75
2022/01/02 20:33:13;;;;;;;11.20;7.15;;;7.40;88.50;;;;;;5110452;28;20199;-74
2022/01/02 20:35:40;;;;;;;14.03;7.40;;;7.30;88.80;;;;;;5114324;28;20192;-77
2022/01/02 20:38:06;;;;;;;7.47;6.17;;;7.30;88.90;;;;;;5090168;28;20233;-76
2022/01/02 20:40:32;;;;;;;6.07;5.37;;;7.20;89.30;;;;;;5109021;28;20177;-76
2022/01/02 20:42:59;;;;;;;11.90;6.60;;;7.20;89.40;;;;;;5110576;28;20194;-77
2022/01/02 20:45:27;;;;;;;15.53;5.70;;;7.10;89.30;;;;;;5095396;27;20829;-75
2022/01/02 20:47:53;;;;;;;11.73;6.97;;;7.10;89.50;;;;;;5096937;27;20634;-76
2022/01/02 20:50:19;;;;;;;9.57;6.90;;;7.00;89.50;;;;;;5115552;27;20215;-76
2022/01/02 20:52:45;;;;;;;15.23;8.17;;;7.00;89.60;;;;;;5115073;27;20205;-76
2022/01/02 20:55:14;;;;;;;15.60;9.17;;;7.00;89.70;;;;;;5112086;27;20188;-76
2022/01/02 20:57:40;;;;;;;10.13;7.43;;;7.00;89.60;;;;;;5089842;27;20243;-76
2022/01/02 21:00:09;;;;;;;14.03;9.23;;;6.90;89.50;;;;;;5113742;27;20261;-76
2022/01/02 21:02:35;;;;;;;10.67;8.60;;;;;;;;;;5108577;27;20174;-76
2022/01/02 21:05:01;;;;;;;22.40;9.80;;;6.90;90.10;;;;;;5110345;27;20268;-76
2022/01/02 21:07:27;;;;;;;18.10;9.63;;;6.90;90.40;;;;;;5115448;27;20861;-75
2022/01/02 21:09:53;;;;;;;16.33;8.30;;;;;;;;;;5115768;27;20185;-76
2022/01/02 21:12:19;;;;;;;14.80;8.67;;;6.80;90.40;;;;;;5117310;27;20246;-75
2022/01/02 21:14:44;;;;;;;21.60;10.57;;;6.80;90.60;;;;;;5112818;27;20189;-77
2022/01/02 21:17:10;;;;;;;15.03;9.40;;;;;;;;;;5115597;27;20186;-77
2022/01/02 21:19:37;;;;;;;15.17;9.77;;;;;;;;;;5112528;27;20188;-76
2022/01/02 21:22:04;;;;;;;18.67;9.00;;;6.70;90.80;;;;;;5100979;27;20173;-77
2022/01/02 21:24:30;;;;;;;14.93;9.60;;;6.70;90.90;;;;;;5104800;27;20749;-78
2022/01/02 21:27:00;;;;;;;14.77;9.60;;;6.60;91.10;;;;;;5113246;27;20192;-78
2022/01/02 21:29:30;;;;;;;16.53;9.80;;;6.60;91.30;;;;;;5106093;27;20178;-74
2022/01/02 21:31:57;;;;;;;18.03;9.70;;;6.60;91.30;;;;;;5110312;27;20272;-75
2022/01/02 21:34:24;;;;;;;16.63;9.63;;;6.60;91.10;;;;;;5108046;27;20180;-75
2022/01/02 21:36:50;;;;;;;15.03;9.17;;;6.60;90.90;;;;;;5093255;27;20265;-74
2022/01/02 21:39:17;;;;;;;19.57;9.10;;;6.50;90.80;;;;;;5105759;27;20205;-75
2022/01/02 21:41:45;;;;;;;16.63;9.70;;;6.50;90.90;;;;;;5089939;28;20582;-75
2022/01/02 21:44:11;;;;;;;16.83;9.80;;;;;;;;;;5109805;27;20177;-75
2022/01/02 21:46:37;;;;;;;14.40;9.77;;;;;;;;;;5111128;27;20675;-75
2022/01/02 21:49:04;;;;;;;11.17;8.83;;;6.40;90.80;;;;;;5113508;27;20697;-76
2022/01/02 21:51:32;;;;;;;16.63;10.73;;;6.40;90.90;;;;;;5106204;27;20264;-75
2022/01/02 21:54:00;;;;;;;17.67;9.73;;;6.40;90.80;;;;;;5093788;27;20736;-75
2022/01/02 21:56:26;;;;;;;17.10;8.87;;;6.30;90.80;;;;;;5114322;27;20273;-75
2022/01/02 21:58:52;;;;;;;15.33;8.27;;;;;;;;;;5116880;27;20783;-73
2022/01/02 22:01:21;;;;;;;15.93;10.37;;;6.30;91.00;;;;;;5116012;27;20182;-75
2022/01/02 22:03:52;;;;;;;15.40;9.20;;;6.30;91.00;;;;;;5113541;27;20185;-75
2022/01/02 22:06:18;;;;;;;15.60;10.63;;;6.30;91.20;;;;;;5112627;27;20260;-75
2022/01/02 22:08:44;;;;;;;18.23;10.60;;;6.30;91.20;;;;;;5109366;27;20704;-74
2022/01/02 22:11:10;;;;;;;22.03;10.60;;;;;;;;;;5111567;27;20208;-75
2022/01/02 22:13:36;;;;;;;14.13;8.57;;;;;;;;;;5113012;27;20258;-74
2022/01/02 22:16:02;;;;;;;16.00;9.60;;;6.30;90.70;;;;;;5114745;27;20260;-75
2022/01/02 22:18:29;;;;;;;28.87;11.43;;;6.30;90.50;;;;;;5112917;27;20214;-75
2022/01/02 22:20:56;;;;;;;19.20;9.93;;;6.20;90.70;;;;;;5115099;27;21104;-75
2022/01/02 22:23:25;;;;;;;21.10;11.03;;;6.10;90.80;;;;;;5115283;27;20191;-75
2022/01/02 22:25:54;;;;;;;19.53;11.80;;;6.10;91.30;;;;;;5114821;27;20177;-74
2022/01/02 22:28:21;;;;;;;30.97;10.97;;;6.00;91.70;;;;;;5107614;27;20205;-74
2022/01/02 22:30:48;;;;;;;26.27;13.83;;;6.00;92.20;;;;;;5099592;27;20272;-73
2022/01/02 22:33:18;;;;;;;26.80;12.13;;;6.00;91.80;;;;;;5102596;27;20186;-75
2022/01/02 22:35:46;;;;;;;25.13;13.03;;;5.90;92.00;;;;;;5115656;27;20190;-75
2022/01/02 22:38:13;;;;;;;20.73;10.60;;;5.90;92.50;;;;;;5107716;27;20216;-75
2022/01/02 22:40:39;;;;;;;23.10;11.80;;;5.90;92.70;;;;;;5108765;27;20213;-75
2022/01/02 22:43:06;;;;;;;22.07;10.90;;;5.90;92.50;;;;;;5115131;27;20192;-74
2022/01/02 22:45:35;;;;;;;15.77;12.33;;;5.90;92.90;;;;;;5112729;27;20189;-75
2022/01/02 22:48:04;;;;;;;20.10;10.57;;;5.90;92.60;;;;;;5094714;28;20189;-75
2022/01/02 22:50:35;;;;;;;13.73;8.70;;;5.90;92.60;;;;;;5113777;27;20192;-74
2022/01/02 22:53:03;;;;;;;21.57;11.90;;;5.80;92.70;;;;;;5109276;27;20189;-74
2022/01/02 22:55:30;;;;;;;17.43;10.43;;;5.80;92.60;;;;;;5112775;27;20192;-75
2022/01/02 22:57:59;;;;;;;14.70;9.43;;;5.80;92.50;;;;;;5093802;27;20717;-75
2022/01/02 23:00:39;;;;;;;18.13;10.80;;;5.80;92.50;;;;;;5108528;27;20390;-75
2022/01/02 23:03:05;;;;;;;16.33;9.47;;;;;;;;;;5124396;27;20189;-74
2022/01/02 23:05:31;;;;;;;20.50;10.67;;;5.80;92.70;;;;;;5116121;27;20787;-75
2022/01/02 23:07:57;;;;;;;17.30;9.87;;;5.80;92.50;;;;;;5102225;27;20173;-76
2022/01/02 23:10:23;;;;;;;13.60;9.03;;;5.70;92.30;;;;;;5112751;27;20173;-75
2022/01/02 23:12:50;;;;;;;16.67;9.47;;;5.70;92.40;;;;;;5113343;27;20189;-74
2022/01/02 23:15:16;;;;;;;12.87;9.07;;;;;;;;;;5112314;27;20261;-74
2022/01/02 23:17:43;;;;;;;12.07;7.70;;;5.60;92.30;;;;;;5114434;27;20210;-76
2022/01/02 23:20:09;;;;;;;13.90;8.93;;;5.50;92.60;;;;;;5105285;27;20181;-74
2022/01/02 23:22:36;;;;;;;13.13;8.87;;;5.50;92.80;;;;;;5110952;27;20572;-74
2022/01/02 23:25:05;;;;;;;16.30;7.67;;;5.50;93.10;;;;;;5112602;27;20242;-74
2022/01/02 23:27:33;;;;;;;18.20;8.07;;;5.50;93.00;;;;;;5110173;27;20549;-74
2022/01/02 23:30:01;;;;;;;11.23;7.43;;;5.50;93.10;;;;;;5109059;27;20190;-75
2022/01/02 23:32:28;;;;;;;14.07;7.80;;;5.40;93.20;;;;;;5097054;27;20289;-75
2022/01/02 23:34:54;;;;;;;11.43;7.70;;;5.40;93.10;;;;;;5107351;27;20669;-75
2022/01/02 23:37:20;;;;;;;12.80;7.73;;;;;;;;;;5114061;27;20181;-74
2022/01/02 23:39:46;;;;;;;10.23;7.67;;;;;;;;;;5112507;27;20216;-75
2022/01/02 23:42:12;;;;;;;20.27;8.00;;;;;;;;;;5113418;27;20651;-74
2022/01/02 23:44:38;;;;;;;11.00;7.73;;;5.30;93.60;;;;;;5108069;27;20502;-75
2022/01/02 23:47:07;;;;;;;14.40;6.00;;;5.20;93.60;;;;;;5114005;27;20291;-75
2022/01/02 23:50:04;;;;;;;8.93;5.90;;;5.20;93.50;;;;;;5111515;27;20185;-74
2022/01/02 23:52:51;;;;;;;9.53;5.97;;;5.20;93.90;;;;;;5112889;27;20174;-76
2022/01/02 23:55:19;;;;;;;8.27;5.57;;;5.10;94.20;;;;;;5113031;27;20213;-75
2022/01/02 23:57:58;;;;;;;9.13;6.23;;;5.10;93.70;;;;;;5111590;28;20205;-74
